Time;durP1;ratioP1;P1;durP2;ratioP2;P2;SDS_P1;SDS_P2;PMS_P1;PMS_P2;Temp;Humidity;BMP_temperature;BMP_pressure;BME280_temperature;BME280_humidity;BME280_pressure;Samples;Min_cycle;Max_cycle;Signal;HPM_P1;HPM_P2
2022/01/17 00:00:55;;;;;;;25.02;14.77;;;7.40;99.90;;;;;;4984119;28;113049;-67
2022/01/17 00:03:24;;;;;;;26.52;13.70;;;7.40;99.90;;;;;;4984126;28;112757;-66
2022/01/17 00:05:51;;;;;;;25.00;13.30;;;7.40;99.90;;;;;;4985254;28;112496;-64
2022/01/17 00:08:17;;;;;;;23.67;12.40;;;7.30;99.90;;;;;;4967405;28;112952;-66
2022/01/17 00:10:45;;;;;;;26.30;13.20;;;7.30;99.90;;;;;;4966026;28;113981;-68
2022/01/17 00:13:21;;;;;;;20.67;12.15;;;7.30;99.90;;;;;;4966638;28;112980;-66
2022/01/17 00:15:51;;;;;;;22.48;10.15;;;7.20;99.90;;;;;;4968912;28;113047;-67
2022/01/17 00:20:46;;;;;;;26.05;12.20;;;7.20;99.90;;;;;;4963924;28;112845;-67
2022/01/17 00:23:16;;;;;;;26.27;12.35;;;7.10;99.90;;;;;;4964338;28;113489;-67
2022/01/17 00:25:42;;;;;;;29.17;14.25;;;7.10;99.90;;;;;;4961042;28;112316;-66
2022/01/17 00:28:08;;;;;;;31.92;13.90;;;7.10;99.90;;;;;;4946314;28;112544;-65
2022/01/17 00:30:34;;;;;;;27.52;14.95;;;7.10;99.90;;;;;;4945905;28;114456;-67
2022/01/17 00:33:02;;;;;;;25.48;13.55;;;7.10;99.90;;;;;;4963823;28;112914;-67
2022/01/17 00:35:28;;;;;;;25.38;14.15;;;7.10;99.90;;;;;;4964850;28;112632;-66
2022/01/17 00:37:54;;;;;;;33.95;16.05;;;7.10;99.90;;;;;;4964725;28;112858;-64
2022/01/17 00:40:20;;;;;;;32.90;17.90;;;7.10;99.90;;;;;;4935676;28;115560;-63
2022/01/17 00:42:46;;;;;;;111.15;70.95;;;7.00;99.90;;;;;;4943069;28;112555;-66
2022/01/17 00:45:13;;;;;;;57.88;35.58;;;7.00;99.90;;;;;;4938481;28;114290;-66
2022/01/17 00:47:40;;;;;;;38.65;22.80;;;7.00;99.90;;;;;;4924432;28;112974;-66
2022/01/17 00:50:07;;;;;;;85.70;41.88;;;7.00;99.90;;;;;;4953047;28;113633;-65
2022/01/17 00:52:33;;;;;;;45.97;24.80;;;7.00;99.90;;;;;;4968409;22;113830;-63
2022/01/17 00:54:59;;;;;;;55.28;36.72;;;7.00;99.90;;;;;;4963810;28;112563;-62
2022/01/17 00:57:24;;;;;;;43.60;27.42;;;7.00;99.90;;;;;;4982941;28;112772;-64
2022/01/17 00:59:50;;;;;;;38.50;20.42;;;6.90;99.90;;;;;;4964656;28;116103;-67
2022/01/17 01:02:16;;;;;;;34.53;19.02;;;6.90;99.90;;;;;;4960270;28;113341;-64
2022/01/17 01:04:42;;;;;;;38.58;19.33;;;6.90;99.90;;;;;;4964182;28;112813;-63
2022/01/17 01:07:08;;;;;;;34.13;19.90;;;6.80;99.90;;;;;;4964149;28;113032;-63
2022/01/17 01:09:36;;;;;;;41.35;23.02;;;6.80;99.90;;;;;;4965212;28;114060;-64
2022/01/17 01:12:03;;;;;;;34.17;20.73;;;6.80;99.90;;;;;;4980127;28;112993;-63
2022/01/17 01:14:28;;;;;;;38.58;20.63;;;6.70;99.90;;;;;;4984182;28;112412;-61
2022/01/17 01:16:56;;;;;;;31.45;18.95;;;6.60;99.90;;;;;;4964727;28;112954;-64
2022/01/17 01:19:39;;;;;;;39.13;19.83;;;6.60;99.90;;;;;;4965696;28;113620;-64
2022/01/17 01:30:13;;;;;;;35.30;16.50;;;6.50;99.90;;;;;;4962993;28;112875;-65
2022/01/17 01:32:46;;;;;;;39.50;18.92;;;6.50;99.90;;;;;;4965459;28;112967;-63
2022/01/17 01:35:15;;;;;;;29.20;19.70;;;6.40;99.90;;;;;;4965059;28;112669;-64
2022/01/17 01:37:44;;;;;;;27.30;17.55;;;6.40;99.90;;;;;;4947074;28;112559;-60
2022/01/17 01:40:10;;;;;;;34.58;17.20;;;6.40;99.90;;;;;;4962355;28;113732;-64
2022/01/17 01:42:36;;;;;;;35.33;16.30;;;6.40;99.90;;;;;;4942940;28;113737;-64
2022/01/17 01:45:05;;;;;;;27.65;14.43;;;6.40;99.90;;;;;;4944178;28;114156;-60
2022/01/17 01:47:31;;;;;;;25.02;14.07;;;6.30;99.90;;;;;;4964207;28;112850;-64
2022/01/17 01:49:57;;;;;;;34.35;15.30;;;6.30;99.90;;;;;;4944919;28;114733;-63
2022/01/17 01:52:23;;;;;;;26.63;13.93;;;6.30;99.90;;;;;;4960222;28;113467;-59
2022/01/17 01:54:50;;;;;;;28.17;12.93;;;6.30;99.90;;;;;;4929372;28;112389;-65
2022/01/17 01:57:16;;;;;;;26.08;14.13;;;6.40;99.90;;;;;;4945362;28;112805;-63
2022/01/17 01:59:42;;;;;;;25.52;13.25;;;6.40;99.90;;;;;;4962967;28;113637;-64
2022/01/17 02:02:08;;;;;;;28.33;15.00;;;6.40;99.90;;;;;;4961643;28;113385;-62
2022/01/17 02:04:34;;;;;;;25.90;13.70;;;6.40;99.90;;;;;;4963835;28;112797;-64
2022/01/17 02:07:00;;;;;;;24.15;13.95;;;6.40;99.90;;;;;;4958923;28;112599;-63
2022/01/17 02:09:25;;;;;;;24.73;13.32;;;6.40;99.90;;;;;;4982364;28;114118;-63
2022/01/17 02:11:51;;;;;;;25.92;13.77;;;6.40;99.90;;;;;;4950375;28;113774;-63
2022/01/17 02:14:18;;;;;;;35.53;15.60;;;6.50;99.90;;;;;;4929408;28;112426;-64
2022/01/17 02:16:45;;;;;;;25.35;14.98;;;6.50;99.90;;;;;;4956077;28;114072;-65
2022/01/17 02:19:12;;;;;;;25.55;15.35;;;6.50;99.90;;;;;;4982525;28;113671;-63
2022/01/17 02:21:47;;;;;;;29.95;14.95;;;6.50;99.90;;;;;;4970839;28;112623;-64
2022/01/17 02:24:16;;;;;;;30.75;15.93;;;6.60;99.90;;;;;;4947397;28;112534;-64
2022/01/17 02:26:43;;;;;;;22.73;13.60;;;6.60;99.90;;;;;;4956040;28;112621;-64
2022/01/17 02:29:10;;;;;;;20.40;12.65;;;6.50;99.90;;;;;;4982099;28;114386;-64
2022/01/17 02:31:36;;;;;;;20.98;12.57;;;6.50;99.90;;;;;;4966104;28;113064;-64
2022/01/17 02:34:03;;;;;;;22.48;12.00;;;6.50;99.90;;;;;;4963594;28;112307;-61
2022/01/17 02:36:30;;;;;;;22.67;12.57;;;6.50;99.90;;;;;;4975410;28;112966;-62
2022/01/17 02:38:56;;;;;;;27.50;12.70;;;6.50;99.90;;;;;;4981343;28;114872;-62
2022/01/17 02:41:22;;;;;;;26.98;11.63;;;6.50;99.90;;;;;;4968015;28;112611;-65
2022/01/17 02:43:48;;;;;;;25.90;11.43;;;6.50;99.90;;;;;;4962827;28;112357;-64
2022/01/17 02:46:27;;;;;;;19.50;9.90;;;6.50;99.90;;;;;;4973126;28;112775;-62
2022/01/17 02:48:55;;;;;;;19.57;10.80;;;6.40;99.90;;;;;;4982024;28;113417;-64
2022/01/17 02:51:22;;;;;;;15.63;9.25;;;6.40;99.90;;;;;;4968744;28;112728;-63
2022/01/17 02:53:47;;;;;;;20.27;10.88;;;6.40;99.90;;;;;;4962373;28;112478;-64
2022/01/17 02:56:13;;;;;;;22.20;10.60;;;6.40;99.90;;;;;;4971963;28;112472;-64
2022/01/17 02:58:40;;;;;;;19.23;10.18;;;6.40;99.90;;;;;;4980888;28;113063;-64
2022/01/17 03:01:16;;;;;;;16.25;10.35;;;6.50;99.90;;;;;;4980712;22;114028;-66
2022/01/17 03:03:43;;;;;;;22.17;9.48;;;6.40;99.90;;;;;;4965485;28;112640;-67
2022/01/17 03:06:11;;;;;;;20.40;8.93;;;6.40;99.90;;;;;;4966324;28;112497;-66
2022/01/17 03:08:38;;;;;;;18.38;10.13;;;6.50;99.90;;;;;;4965731;28;113852;-67
2022/01/17 03:11:06;;;;;;;22.42;10.45;;;6.50;99.90;;;;;;4953820;28;112478;-67
2022/01/17 03:13:36;;;;;;;17.08;9.70;;;6.50;99.90;;;;;;4961698;28;113053;-66
2022/01/17 03:16:07;;;;;;;21.80;9.85;;;6.50;99.90;;;;;;4965732;28;112508;-66
2022/01/17 03:18:39;;;;;;;19.20;9.70;;;6.50;99.90;;;;;;4965844;28;113756;-67
2022/01/17 03:21:07;;;;;;;20.77;10.55;;;6.50;99.90;;;;;;4953447;28;113813;-66
2022/01/17 03:23:34;;;;;;;21.02;10.07;;;6.50;99.90;;;;;;4946172;28;112395;-67
2022/01/17 03:26:00;;;;;;;18.58;9.82;;;6.50;99.90;;;;;;4954117;28;112747;-66
2022/01/17 03:28:26;;;;;;;17.75;9.77;;;6.50;99.90;;;;;;4947598;28;115271;-66
2022/01/17 03:30:53;;;;;;;17.58;9.73;;;6.40;99.90;;;;;;4955664;28;113545;-68
2022/01/17 03:33:19;;;;;;;19.67;10.93;;;6.40;99.90;;;;;;4946601;28;112596;-66
2022/01/17 03:35:45;;;;;;;25.30;11.27;;;6.40;99.90;;;;;;4953162;28;113205;-66
2022/01/17 03:38:13;;;;;;;22.83;12.45;;;6.40;99.90;;;;;;4965266;28;113421;-66
2022/01/17 03:40:41;;;;;;;25.67;13.95;;;6.40;99.90;;;;;;4957613;28;112819;-68
2022/01/17 03:43:07;;;;;;;29.73;15.52;;;6.40;99.90;;;;;;4946404;28;112803;-67
2022/01/17 03:45:33;;;;;;;26.55;15.00;;;6.40;99.90;;;;;;4950274;28;112934;-66
2022/01/17 03:47:59;;;;;;;21.85;13.35;;;6.40;99.90;;;;;;4965160;28;114395;-66
2022/01/17 03:50:27;;;;;;;27.48;12.73;;;6.30;99.90;;;;;;4946187;28;113927;-68
2022/01/17 03:52:53;;;;;;;26.27;13.55;;;6.30;99.90;;;;;;4965835;28;112368;-65
2022/01/17 03:55:21;;;;;;;22.80;12.80;;;6.30;99.90;;;;;;4964432;28;112408;-69
2022/01/17 03:57:47;;;;;;;22.48;13.60;;;6.30;99.90;;;;;;4964232;28;113864;-66
2022/01/17 04:00:22;;;;;;;27.73;13.77;;;6.30;99.90;;;;;;4958310;28;115885;-65
2022/01/17 04:02:49;;;;;;;25.38;14.20;;;6.30;99.90;;;;;;4945930;28;112705;-66
2022/01/17 04:05:15;;;;;;;32.88;15.25;;;6.30;99.90;;;;;;4948639;28;112491;-66
2022/01/17 04:07:41;;;;;;;26.33;14.95;;;6.20;99.90;;;;;;4964262;28;114953;-65
2022/01/17 04:10:07;;;;;;;33.72;15.32;;;6.20;99.90;;;;;;4962142;28;114041;-66
2022/01/17 04:12:33;;;;;;;33.10;15.07;;;6.20;99.90;;;;;;4965069;28;112843;-66
2022/01/17 04:14:59;;;;;;;27.80;14.93;;;6.20;99.90;;;;;;4945774;28;112470;-65
2022/01/17 04:17:28;;;;;;;29.40;16.20;;;6.20;99.90;;;;;;4962224;28;113595;-67
2022/01/17 04:20:06;;;;;;;29.48;15.50;;;6.20;99.90;;;;;;4962139;28;115670;-65
2022/01/17 04:22:39;;;;;;;33.10;16.85;;;6.20;99.90;;;;;;4939507;28;112792;-65
2022/01/17 04:25:07;;;;;;;29.58;15.32;;;6.10;99.90;;;;;;4964035;28;113221;-65
2022/01/17 04:27:33;;;;;;;33.78;15.10;;;6.10;99.90;;;;;;4947025;28;114471;-67
2022/01/17 04:29:59;;;;;;;31.63;16.27;;;6.10;99.90;;;;;;4962863;28;113362;-65
2022/01/17 04:32:24;;;;;;;28.35;16.00;;;6.10;99.90;;;;;;4943986;28;112300;-66
2022/01/17 04:34:50;;;;;;;28.08;17.17;;;6.10;99.90;;;;;;4943150;28;112698;-69
2022/01/17 04:37:16;;;;;;;26.95;14.43;;;6.10;99.90;;;;;;4962095;28;113394;-66
2022/01/17 04:39:42;;;;;;;26.58;13.80;;;6.10;99.90;;;;;;4946322;28;112978;-66
2022/01/17 04:42:13;;;;;;;23.77;12.52;;;6.10;99.90;;;;;;4962971;28;113658;-67
2022/01/17 04:47:31;;;;;;;26.50;12.93;;;6.00;99.90;;;;;;4944002;28;112828;-67
2022/01/17 04:49:57;;;;;;;22.73;13.48;;;6.00;99.90;;;;;;4943915;28;114845;-66
2022/01/17 04:52:23;;;;;;;28.73;14.00;;;6.00;99.90;;;;;;4962760;28;112645;-65
2022/01/17 04:54:54;;;;;;;24.55;11.77;;;6.00;99.90;;;;;;4964867;28;112619;-67
2022/01/17 04:57:21;;;;;;;30.70;13.80;;;6.00;99.90;;;;;;4963514;28;113489;-65
2022/01/17 04:59:48;;;;;;;25.30;13.40;;;6.00;99.90;;;;;;4963420;28;113141;-64
2022/01/17 05:02:14;;;;;;;24.35;13.20;;;6.00;99.90;;;;;;4946645;28;112417;-64
2022/01/17 05:04:40;;;;;;;27.33;16.27;;;6.00;99.90;;;;;;4927709;28;112497;-67
2022/01/17 05:07:06;;;;;;;37.25;17.20;;;5.90;99.90;;;;;;4957635;28;112889;-67
2022/01/17 05:09:33;;;;;;;34.35;20.92;;;5.90;99.90;;;;;;4962479;28;112667;-66
2022/01/17 05:11:59;;;;;;;35.75;18.67;;;5.90;99.90;;;;;;4962784;28;112724;-64
2022/01/17 05:14:25;;;;;;;31.38;17.42;;;5.80;99.90;;;;;;4946873;28;112941;-66
2022/01/17 05:16:59;;;;;;;31.52;15.90;;;5.80;99.90;;;;;;4949388;28;115159;-69
2022/01/17 05:22:09;;;;;;;29.98;15.98;;;5.70;99.90;;;;;;4959355;28;114060;-66
2022/01/17 05:24:35;;;;;;;26.90;15.75;;;5.70;99.90;;;;;;4944406;28;112558;-65
2022/01/17 05:27:00;;;;;;;27.88;15.63;;;5.70;99.90;;;;;;4960671;28;113274;-66
2022/01/17 05:29:26;;;;;;;35.20;15.05;;;5.70;99.90;;;;;;4963408;28;112522;-66
2022/01/17 05:31:52;;;;;;;25.55;13.90;;;5.70;99.90;;;;;;4950294;28;113236;-67
2022/01/17 05:34:18;;;;;;;26.33;12.90;;;5.70;99.90;;;;;;4942869;28;112954;-68
2022/01/17 05:36:44;;;;;;;25.35;13.85;;;5.70;99.90;;;;;;4946648;28;116852;-66
2022/01/17 05:39:10;;;;;;;27.42;13.07;;;5.70;99.90;;;;;;4943631;28;112519;-68
2022/01/17 05:41:36;;;;;;;31.60;14.60;;;5.70;99.90;;;;;;4944326;28;114302;-68
2022/01/17 05:44:01;;;;;;;24.33;12.43;;;5.70;99.90;;;;;;4926717;28;112643;-64
2022/01/17 05:46:27;;;;;;;21.73;12.68;;;5.70;99.90;;;;;;4950993;28;114253;-67
2022/01/17 05:48:53;;;;;;;21.02;11.38;;;5.70;99.90;;;;;;4962472;28;114008;-67
2022/01/17 05:51:19;;;;;;;27.02;12.50;;;5.70;99.90;;;;;;4955454;28;113362;-66
2022/01/17 05:53:44;;;;;;;22.08;10.65;;;5.70;99.90;;;;;;4944265;28;112412;-66
2022/01/17 05:56:10;;;;;;;19.50;10.27;;;5.70;99.90;;;;;;4949385;28;115443;-66
2022/01/17 05:58:36;;;;;;;18.98;9.98;;;5.70;99.90;;;;;;4962907;28;112826;-66
2022/01/17 06:01:02;;;;;;;19.92;9.73;;;5.70;99.90;;;;;;4954561;28;112814;-65
2022/01/17 06:03:28;;;;;;;19.77;10.35;;;5.70;99.90;;;;;;4986940;22;116630;-65
2022/01/17 06:05:54;;;;;;;20.13;9.27;;;5.70;99.90;;;;;;4983033;28;112943;-63
2022/01/17 06:08:19;;;;;;;20.20;9.55;;;5.70;99.90;;;;;;4964123;28;113872;-60
2022/01/17 06:10:45;;;;;;;14.27;8.90;;;5.70;99.90;;;;;;4966299;28;113176;-64
2022/01/17 06:13:11;;;;;;;27.58;12.32;;;5.70;99.90;;;;;;4981957;28;113624;-64
2022/01/17 06:15:37;;;;;;;22.23;11.82;;;5.60;99.90;;;;;;4982524;28;113077;-65
2022/01/17 06:18:03;;;;;;;28.02;11.50;;;5.60;99.90;;;;;;4963393;28;115009;-66
2022/01/17 06:20:28;;;;;;;22.23;9.82;;;5.60;99.90;;;;;;4965195;28;112334;-63
2022/01/17 06:22:54;;;;;;;22.35;10.20;;;5.60;99.90;;;;;;4965352;28;112509;-66
2022/01/17 06:25:20;;;;;;;22.15;10.18;;;5.60;99.90;;;;;;4964584;28;114466;-64
2022/01/17 06:27:46;;;;;;;18.05;8.73;;;5.50;99.90;;;;;;4963505;28;114311;-64
2022/01/17 06:30:13;;;;;;;29.35;10.73;;;5.60;99.90;;;;;;4982944;28;112252;-63
2022/01/17 06:32:42;;;;;;;21.88;10.30;;;5.50;99.90;;;;;;4982713;28;112510;-64
2022/01/17 06:35:09;;;;;;;19.38;10.27;;;5.50;99.90;;;;;;4964164;28;116256;-64
2022/01/17 06:37:35;;;;;;;18.75;10.43;;;5.50;99.90;;;;;;4983624;28;113903;-61
2022/01/17 06:40:02;;;;;;;20.80;10.43;;;5.50;99.90;;;;;;4985572;28;113072;-60
2022/01/17 06:42:28;;;;;;;17.55;9.73;;;5.50;99.90;;;;;;4985636;28;112556;-64
2022/01/17 06:44:54;;;;;;;21.30;9.65;;;5.50;99.90;;;;;;4984133;28;114207;-63
2022/01/17 06:47:20;;;;;;;20.83;9.07;;;5.50;99.90;;;;;;4967676;28;114118;-61
2022/01/17 06:49:46;;;;;;;18.33;9.05;;;5.40;99.90;;;;;;4983270;28;113324;-66
2022/01/17 06:52:12;;;;;;;20.05;9.43;;;5.40;99.90;;;;;;4986686;28;112855;-65
2022/01/17 06:54:38;;;;;;;14.95;8.07;;;5.40;99.90;;;;;;4985423;28;112955;-63
2022/01/17 06:57:04;;;;;;;21.35;9.95;;;5.40;99.90;;;;;;4985780;28;112885;-66
2022/01/17 06:59:30;;;;;;;17.05;7.45;;;5.40;99.90;;;;;;4995775;22;112527;-65
2022/01/17 07:01:56;;;;;;;15.77;8.02;;;5.30;99.90;;;;;;4985534;28;112850;-68
2022/01/17 07:04:22;;;;;;;19.33;9.70;;;5.30;99.90;;;;;;4985675;28;113663;-66
2022/01/17 07:06:48;;;;;;;16.50;8.90;;;5.30;99.90;;;;;;4985717;22;113923;-58
2022/01/17 07:09:16;;;;;;;18.83;9.35;;;5.30;99.90;;;;;;4948207;28;112599;-60
2022/01/17 07:11:43;;;;;;;21.48;10.02;;;5.30;99.90;;;;;;4927366;28;112634;-64
2022/01/17 07:14:10;;;;;;;18.55;9.10;;;5.30;99.90;;;;;;4927649;28;115381;-65
2022/01/17 07:16:40;;;;;;;25.08;7.93;;;5.30;99.90;;;;;;4932791;28;114890;-65
2022/01/17 07:19:07;;;;;;;21.30;9.15;;;5.30;99.90;;;;;;4949244;28;112465;-66
2022/01/17 07:21:34;;;;;;;19.52;8.73;;;5.30;99.90;;;;;;4964635;28;112512;-64
2022/01/17 07:24:00;;;;;;;18.17;8.43;;;5.20;99.90;;;;;;4963439;28;113832;-63
2022/01/17 07:26:26;;;;;;;14.85;8.50;;;5.20;99.90;;;;;;4946029;28;113769;-64
2022/01/17 07:28:52;;;;;;;18.60;8.77;;;5.20;99.90;;;;;;4964265;28;112545;-65
2022/01/17 07:31:19;;;;;;;17.80;8.05;;;5.20;99.90;;;;;;4962712;28;112722;-66
2022/01/17 07:33:45;;;;;;;16.20;7.53;;;5.20;99.90;;;;;;4953839;28;113559;-64
2022/01/17 07:36:17;;;;;;;13.23;7.25;;;5.10;99.90;;;;;;4962475;28;112858;-61
2022/01/17 07:38:44;;;;;;;15.18;7.78;;;5.10;99.90;;;;;;4965343;28;113334;-65
2022/01/17 07:41:11;;;;;;;14.10;7.50;;;5.10;99.90;;;;;;4966004;28;112502;-65
2022/01/17 07:43:38;;;;;;;14.65;7.25;;;5.00;99.90;;;;;;4964263;28;114476;-66
2022/01/17 07:48:57;;;;;;;15.50;8.90;;;5.00;99.90;;;;;;4963295;28;112447;-66
2022/01/17 07:51:24;;;;;;;20.10;9.95;;;5.00;99.90;;;;;;4963783;28;113410;-60
2022/01/17 07:53:50;;;;;;;21.15;10.93;;;5.00;99.90;;;;;;4945393;28;114234;-66
2022/01/17 07:56:16;;;;;;;23.08;12.63;;;4.90;99.90;;;;;;4963532;28;112878;-68
2022/01/17 07:58:41;;;;;;;26.95;13.73;;;4.80;99.90;;;;;;4965046;28;112391;-67
2022/01/17 08:01:08;;;;;;;24.27;13.38;;;4.80;99.90;;;;;;4964511;28;112883;-67
2022/01/17 08:03:34;;;;;;;32.30;15.50;;;4.70;99.90;;;;;;4966112;28;114607;-69
2022/01/17 08:06:01;;;;;;;27.25;15.73;;;4.70;99.90;;;;;;4964521;28;113565;-67
2022/01/17 08:08:27;;;;;;;31.60;14.25;;;4.70;99.90;;;;;;4959250;28;112730;-69
2022/01/17 08:10:53;;;;;;;28.33;16.35;;;4.70;99.90;;;;;;4963243;28;113238;-66
2022/01/17 08:13:19;;;;;;;30.33;17.70;;;4.70;99.90;;;;;;4946222;28;113860;-69
2022/01/17 08:15:46;;;;;;;42.90;17.67;;;4.70;99.90;;;;;;4963907;28;114510;-69
2022/01/17 08:18:13;;;;;;;40.45;19.27;;;4.80;99.90;;;;;;4964784;28;112400;-68
2022/01/17 08:20:40;;;;;;;37.17;19.15;;;4.80;99.90;;;;;;4965324;28;112549;-68
2022/01/17 08:23:07;;;;;;;35.63;16.90;;;4.80;99.90;;;;;;4959999;28;115999;-66
2022/01/17 08:25:33;;;;;;;36.03;16.40;;;4.80;99.90;;;;;;4963916;28;113919;-66
2022/01/17 08:27:59;;;;;;;43.58;19.02;;;4.90;99.90;;;;;;4945618;28;112906;-66
2022/01/17 08:30:26;;;;;;;37.78;18.73;;;4.90;99.90;;;;;;4963389;28;112586;-65
2022/01/17 08:32:52;;;;;;;47.45;19.00;;;4.90;99.90;;;;;;4945542;28;114413;-67
2022/01/17 08:35:19;;;;;;;46.80;18.10;;;5.00;99.90;;;;;;4963014;28;112969;-67
2022/01/17 08:37:46;;;;;;;29.65;15.88;;;5.10;99.90;;;;;;4963731;28;112765;-66
2022/01/17 08:40:12;;;;;;;32.53;16.25;;;5.10;99.90;;;;;;4943955;28;112537;-66
2022/01/17 08:42:38;;;;;;;35.53;15.43;;;5.20;99.90;;;;;;4960383;28;114627;-68
2022/01/17 08:45:07;;;;;;;49.92;20.67;;;5.20;99.90;;;;;;4966840;28;114307;-59
2022/01/17 08:47:33;;;;;;;50.00;21.27;;;5.20;99.90;;;;;;4971156;28;112793;-67
2022/01/17 08:49:59;;;;;;;74.95;28.83;;;5.30;99.90;;;;;;4975247;28;115538;-64
2022/01/17 08:52:25;;;;;;;52.60;23.55;;;5.30;99.90;;;;;;4965290;28;114289;-65
2022/01/17 08:54:53;;;;;;;44.13;20.92;;;5.40;99.90;;;;;;4950174;28;115324;-64
2022/01/17 08:57:19;;;;;;;42.03;19.58;;;5.40;99.90;;;;;;4950656;28;113549;-66
2022/01/17 08:59:46;;;;;;;44.40;18.13;;;5.50;99.90;;;;;;4975048;28;112423;-65
2022/01/17 09:02:13;;;;;;;27.42;13.98;;;5.60;99.90;;;;;;4976257;28;114551;-65
2022/01/17 09:04:42;;;;;;;38.83;16.15;;;5.60;99.90;;;;;;4964003;28;114205;-65
2022/01/17 09:07:13;;;;;;;31.87;15.47;;;5.70;99.90;;;;;;4969841;28;112669;-64
2022/01/17 09:09:42;;;;;;;34.08;16.30;;;5.80;99.90;;;;;;4972771;28;112641;-68
2022/01/17 09:12:10;;;;;;;30.27;14.70;;;5.80;99.90;;;;;;4975496;28;114323;-65
2022/01/17 09:14:37;;;;;;;28.48;16.38;;;5.90;99.90;;;;;;4965420;28;113098;-66
2022/01/17 09:17:07;;;;;;;33.70;16.40;;;5.90;99.90;;;;;;4969508;28;112639;-65
2022/01/17 09:19:35;;;;;;;41.92;16.02;;;6.00;99.90;;;;;;4970707;28;114079;-64
2022/01/17 09:22:01;;;;;;;23.77;14.60;;;6.10;99.90;;;;;;4955048;28;113005;-65
2022/01/17 09:24:28;;;;;;;22.45;13.85;;;6.20;99.90;;;;;;4962675;28;112851;-67
2022/01/17 09:26:53;;;;;;;27.10;14.32;;;6.20;99.90;;;;;;4977917;28;112448;-66
2022/01/17 09:29:19;;;;;;;20.08;13.35;;;6.30;99.90;;;;;;4968188;28;112849;-66
2022/01/17 09:31:45;;;;;;;30.73;15.07;;;6.40;99.90;;;;;;4966743;28;113487;-67
2022/01/17 09:34:11;;;;;;;24.48;14.70;;;6.50;99.90;;;;;;4947892;28;113652;-65
2022/01/17 09:36:37;;;;;;;27.38;14.93;;;6.60;99.90;;;;;;4978440;28;112886;-67
2022/01/17 09:39:05;;;;;;;32.25;15.98;;;6.60;99.90;;;;;;4969104;28;112897;-66
2022/01/17 09:41:31;;;;;;;23.42;13.82;;;6.70;99.90;;;;;;4961526;28;114789;-67
2022/01/17 09:44:09;;;;;;;20.98;13.30;;;6.90;99.90;;;;;;4971291;28;112455;-67
2022/01/17 09:46:41;;;;;;;26.45;13.20;;;7.00;99.90;;;;;;4960608;28;112474;-63
2022/01/17 09:49:21;;;;;;;21.90;14.32;;;7.00;99.90;;;;;;4972414;28;112492;-67
2022/01/17 09:54:36;;;;;;;27.77;12.98;;;7.30;99.90;;;;;;4977888;28;112585;-69
2022/01/17 09:57:06;;;;;;;31.08;13.25;;;7.40;99.90;;;;;;4986783;22;118492;-71
2022/01/17 09:59:36;;;;;;;23.73;14.50;;;7.50;99.90;;;;;;4982582;28;113203;-73
2022/01/17 10:02:04;;;;;;;24.90;13.15;;;7.60;99.90;;;;;;4919884;28;116228;-71
2022/01/17 10:04:30;;;;;;;32.05;15.15;;;7.80;99.90;;;;;;4964962;28;112436;-71
2022/01/17 10:06:59;;;;;;;22.58;13.63;;;7.90;99.90;;;;;;4977602;28;113649;-68
2022/01/17 10:09:28;;;;;;;33.00;16.52;;;8.00;99.90;;;;;;4981918;28;112530;-67
2022/01/17 10:12:05;;;;;;;23.02;12.98;;;8.20;99.90;;;;;;4984396;28;115254;-70
2022/01/17 10:14:43;;;;;;;28.52;16.02;;;8.30;99.90;;;;;;4993781;28;113579;-71
2022/01/17 10:17:17;;;;;;;22.40;14.30;;;8.50;99.90;;;;;;4985068;28;112443;-69
2022/01/17 10:19:44;;;;;;;32.33;13.38;;;8.60;99.90;;;;;;4998860;28;112709;-70
2022/01/17 10:22:20;;;;;;;24.10;12.95;;;8.70;99.90;;;;;;4980694;28;113564;-71
2022/01/17 10:35:23;;;;;;;20.05;11.05;;;9.20;99.90;;;;;;4987368;28;112426;-74
2022/01/17 10:38:06;;;;;;;18.85;10.80;;;9.40;99.90;;;;;;4973538;28;112827;-67
2022/01/17 10:40:39;;;;;;;22.55;9.88;;;9.60;99.90;;;;;;4980008;22;113861;-65
2022/01/17 10:43:17;;;;;;;19.33;9.07;;;9.70;99.90;;;;;;4952186;28;115563;-65
2022/01/17 10:45:43;;;;;;;13.45;8.25;;;9.90;99.90;;;;;;4972372;28;112772;-66
2022/01/17 10:48:11;;;;;;;15.88;7.93;;;10.10;99.90;;;;;;4967194;28;112777;-66
2022/01/17 10:50:48;;;;;;;15.77;8.65;;;10.20;99.90;;;;;;4956777;28;113508;-62
2022/01/17 10:53:16;;;;;;;16.35;9.55;;;10.40;99.90;;;;;;4952135;28;113786;-64
2022/01/17 10:56:07;;;;;;;17.92;9.80;;;10.60;99.90;;;;;;4941902;28;112611;-68
2022/01/17 10:58:35;;;;;;;18.90;9.27;;;10.80;99.90;;;;;;4955690;28;112365;-64
2022/01/17 11:01:06;;;;;;;14.05;6.93;;;11.00;99.90;;;;;;4946664;28;112432;-65
2022/01/17 11:03:34;;;;;;;14.05;8.25;;;11.10;99.90;;;;;;4950234;28;113150;-62
2022/01/17 11:06:06;;;;;;;14.45;6.93;;;11.20;99.90;;;;;;4953438;28;113387;-67
2022/01/17 11:08:34;;;;;;;11.93;6.20;;;11.30;99.90;;;;;;4943747;28;112648;-65
2022/01/17 11:11:03;;;;;;;15.57;5.90;;;11.40;99.90;;;;;;4953971;28;113133;-66
2022/01/17 11:13:31;;;;;;;13.80;7.15;;;11.40;99.90;;;;;;4944739;28;114434;-64
2022/01/17 11:16:04;;;;;;;10.00;6.40;;;11.50;99.90;;;;;;4952965;28;113221;-66
2022/01/17 11:18:31;;;;;;;17.50;8.23;;;11.50;99.90;;;;;;4944371;28;112801;-67
2022/01/17 11:21:10;;;;;;;11.43;5.90;;;11.60;99.90;;;;;;4949192;28;112732;-67
2022/01/17 11:23:41;;;;;;;10.23;5.73;;;11.70;99.90;;;;;;4962334;28;113742;-63
2022/01/17 11:26:07;;;;;;;11.95;6.03;;;11.70;99.90;;;;;;4965801;28;112846;-65
2022/01/17 11:28:34;;;;;;;14.68;5.75;;;11.80;99.90;;;;;;4966902;28;112598;-65
2022/01/17 11:31:06;;;;;;;14.90;6.47;;;11.90;99.90;;;;;;4959491;28;112451;-67
2022/01/17 11:33:33;;;;;;;12.13;5.97;;;11.90;99.90;;;;;;4975068;28;113197;-64
2022/01/17 11:35:59;;;;;;;10.98;5.75;;;12.00;99.90;;;;;;4965356;28;112873;-63
2022/01/17 11:38:41;;;;;;;14.48;6.03;;;12.00;99.90;;;;;;4976739;28;112520;-64
2022/01/17 11:41:29;;;;;;;11.75;5.45;;;12.10;99.90;;;;;;4956376;28;114131;-64
2022/01/17 11:44:02;;;;;;;12.13;5.95;;;12.20;99.90;;;;;;4963274;28;114140;-63
2022/01/17 11:46:31;;;;;;;13.70;6.60;;;12.30;99.90;;;;;;4964369;28;113023;-65
2022/01/17 11:49:06;;;;;;;9.63;6.18;;;12.60;99.90;;;;;;5027243;22;113030;-60
2022/01/17 11:51:50;;;;;;;12.88;7.22;;;12.80;99.90;;;;;;4985963;28;112538;-60
2022/01/17 11:54:20;;;;;;;10.30;5.80;;;13.20;99.90;;;;;;4967752;28;113061;-61
2022/01/17 11:57:03;;;;;;;15.57;5.80;;;13.50;99.90;;;;;;4984202;28;113064;-61
2022/01/17 11:59:48;;;;;;;11.13;6.22;;;13.90;99.90;;;;;;4984741;28;112567;-60
2022/01/17 12:02:29;;;;;;;11.35;4.97;;;14.40;99.90;;;;;;4984608;28;113034;-61
2022/01/17 12:05:07;;;;;;;11.25;6.10;;;15.00;99.90;;;;;;4984492;28;114329;-59
2022/01/17 12:07:51;;;;;;;11.60;5.43;;;15.80;99.90;;;;;;4965704;28;114603;-60
2022/01/17 12:10:26;;;;;;;14.88;6.63;;;16.60;99.90;;;;;;4984897;28;112437;-60
2022/01/17 12:13:10;;;;;;;10.30;4.88;;;17.20;99.90;;;;;;4985100;28;112883;-61
2022/01/17 12:18:36;;;;;;;7.53;5.22;;;17.80;96.50;;;;;;4938575;28;112526;-60
2022/01/17 12:21:23;;;;;;;18.58;8.52;;;18.20;95.10;;;;;;4942565;28;112704;-63
2022/01/17 12:23:49;;;;;;;9.27;5.40;;;18.60;93.90;;;;;;4925387;28;112563;-66
2022/01/17 12:26:53;;;;;;;14.00;6.28;;;18.90;93.30;;;;;;4925165;28;113220;-67
2022/01/17 12:29:47;;;;;;;8.82;5.88;;;19.40;91.40;;;;;;4924574;28;113506;-67
2022/01/17 12:32:48;;;;;;;11.93;5.07;;;19.80;91.60;;;;;;4926116;28;112360;-66
2022/01/17 12:35:26;;;;;;;10.73;6.75;;;20.30;89.90;;;;;;4925876;28;112527;-65
2022/01/17 12:38:05;;;;;;;10.75;4.60;;;20.90;86.50;;;;;;4925347;28;113130;-66
2022/01/17 12:40:35;;;;;;;13.57;5.10;;;21.20;83.30;;;;;;4925865;28;112972;-66
2022/01/17 12:43:04;;;;;;;10.05;5.03;;;21.60;80.20;;;;;;4926040;28;112986;-67
2022/01/17 12:45:59;;;;;;;10.27;5.43;;;22.00;78.60;;;;;;4925929;28;112493;-65
2022/01/17 12:48:29;;;;;;;7.75;5.28;;;22.50;74.90;;;;;;4923738;28;115918;-65
2022/01/17 12:50:55;;;;;;;;;;;22.80;71.50;;;;;;4925724;28;113476;-66
2022/01/17 12:53:24;;;;;;;17.83;6.13;;;23.20;73.40;;;;;;4927484;28;112553;-66
2022/01/17 12:55:59;;;;;;;15.73;5.93;;;23.70;72.00;;;;;;4925797;28;112459;-67
2022/01/17 12:58:31;;;;;;;24.13;8.27;;;24.20;72.60;;;;;;4923741;28;115911;-66
2022/01/17 13:01:01;;;;;;;25.08;7.85;;;24.70;71.20;;;;;;4925635;28;112604;-65
2022/01/17 13:03:33;;;;;;;18.33;6.70;;;25.10;69.40;;;;;;4925868;28;112416;-66
2022/01/17 13:06:00;;;;;;;18.58;7.45;;;25.70;67.80;;;;;;4924274;28;112595;-62
2022/01/17 13:08:30;;;;;;;10.87;6.70;;;26.20;65.90;;;;;;4924251;28;114184;-66
2022/01/17 13:10:56;;;;;;;18.75;7.13;;;26.60;63.90;;;;;;4937675;28;116166;-62